Time;durP1;ratioP1;P1;durP2;ratioP2;P2;SDS_P1;SDS_P2;PMS_P1;PMS_P2;Temp;Humidity;BMP_temperature;BMP_pressure;BME280_temperature;BME280_humidity;BME280_pressure;Samples;Min_cycle;Max_cycle;Signal;HPM_P1;HPM_P2
2023/05/15 00:02:17;;;;;;;7.65;4.43;;;11.50;99.90;;;;;;5038331;28;20552;-75
2023/05/15 00:04:43;;;;;;;8.93;4.90;;;11.50;99.90;;;;;;5033581;28;20108;-75
2023/05/15 00:07:09;;;;;;;6.43;3.33;;;11.50;99.90;;;;;;5034359;28;20136;-76
2023/05/15 00:09:34;;;;;;;5.13;2.72;;;11.40;99.90;;;;;;5040180;28;20041;-75
2023/05/15 00:12:00;;;;;;;6.82;3.30;;;11.20;99.90;;;;;;5032506;28;20030;-76
2023/05/15 00:14:26;;;;;;;4.50;2.53;;;11.30;99.90;;;;;;5035517;28;20040;-75
2023/05/15 00:16:51;;;;;;;3.67;1.70;;;11.20;99.90;;;;;;5041684;28;20395;-75
2023/05/15 00:19:17;;;;;;;3.22;1.92;;;11.10;99.90;;;;;;5048001;28;20472;-76
2023/05/15 00:21:42;;;;;;;3.80;2.53;;;10.90;99.90;;;;;;5039258;28;20029;-75
2023/05/15 00:24:08;;;;;;;4.38;2.53;;;10.90;99.90;;;;;;5042409;28;20488;-75
2023/05/15 00:26:34;;;;;;;7.43;3.58;;;10.90;99.90;;;;;;5037784;28;20118;-75
2023/05/15 00:28:59;;;;;;;3.65;2.08;;;10.80;99.90;;;;;;5040518;28;20041;-76
2023/05/15 00:31:25;;;;;;;3.58;1.92;;;10.70;99.90;;;;;;5040656;28;20061;-75
2023/05/15 00:33:50;;;;;;;5.53;2.35;;;10.70;99.90;;;;;;5033807;28;20044;-75
2023/05/15 00:36:16;;;;;;;3.60;1.90;;;10.70;99.90;;;;;;5043916;28;20480;-75
2023/05/15 00:38:42;;;;;;;3.55;1.50;;;10.60;99.90;;;;;;5032929;28;20112;-75
2023/05/15 00:41:10;;;;;;;3.17;1.50;;;10.60;99.90;;;;;;5035327;28;20036;-75
2023/05/15 00:43:38;;;;;;;6.25;3.88;;;10.60;99.90;;;;;;5039929;28;20357;-76
2023/05/15 00:46:06;;;;;;;6.40;3.33;;;10.70;99.90;;;;;;5034548;28;20492;-76
2023/05/15 00:48:32;;;;;;;5.88;2.50;;;10.70;99.90;;;;;;5041668;28;20041;-75
2023/05/15 00:50:59;;;;;;;3.85;1.80;;;10.70;99.90;;;;;;5040385;28;20044;-76
2023/05/15 00:53:26;;;;;;;9.90;1.80;;;10.50;99.90;;;;;;5045338;28;20383;-76
2023/05/15 00:55:56;;;;;;;3.25;1.50;;;10.30;99.90;;;;;;5043600;28;20068;-75
2023/05/15 00:58:23;;;;;;;3.22;1.65;;;10.20;99.90;;;;;;5036466;28;20030;-75
2023/05/15 01:00:50;;;;;;;3.90;1.95;;;10.20;99.90;;;;;;5040103;28;20345;-76
2023/05/15 01:03:16;;;;;;;3.35;1.77;;;10.30;99.90;;;;;;5031681;28;20060;-76
2023/05/15 01:05:43;;;;;;;3.13;1.83;;;10.20;99.90;;;;;;5034425;28;20025;-75
2023/05/15 01:08:17;;;;;;;6.85;2.15;;;10.20;99.90;;;;;;5038869;28;20064;-75
2023/05/15 01:10:46;;;;;;;3.58;2.10;;;10.20;99.90;;;;;;5032428;28;20033;-76
2023/05/15 01:13:14;;;;;;;3.55;1.65;;;10.10;99.90;;;;;;5039647;28;20109;-75
2023/05/15 01:15:40;;;;;;;3.75;1.65;;;10.10;99.90;;;;;;5033816;28;20029;-75
2023/05/15 01:18:06;;;;;;;2.47;1.45;;;10.00;99.90;;;;;;5035615;28;20042;-75
2023/05/15 01:20:54;;;;;;;3.67;1.90;;;10.10;99.90;;;;;;5031127;28;20033;-76
2023/05/15 01:23:41;;;;;;;1.90;1.33;;;10.30;99.90;;;;;;5042531;28;20079;-76
2023/05/15 01:26:28;;;;;;;2.80;1.35;;;10.10;99.90;;;;;;5035022;28;20022;-75
2023/05/15 01:29:22;;;;;;;2.85;1.35;;;10.00;99.90;;;;;;5041202;28;20480;-75
2023/05/15 01:32:01;;;;;;;2.05;1.02;;;10.10;99.90;;;;;;5045361;28;20036;-75
2023/05/15 01:34:37;;;;;;;2.50;1.02;;;10.10;99.90;;;;;;5031168;28;20061;-75
2023/05/15 01:37:03;;;;;;;1.98;0.93;;;10.10;99.90;;;;;;5038335;28;20048;-75
2023/05/15 01:39:32;;;;;;;1.98;0.90;;;10.10;99.90;;;;;;5037936;28;20057;-76
2023/05/15 01:42:09;;;;;;;2.05;0.77;;;10.00;99.90;;;;;;5039261;28;20510;-75
2023/05/15 01:44:40;;;;;;;3.47;1.15;;;10.20;99.90;;;;;;5036389;28;20030;-75
2023/05/15 01:47:11;;;;;;;1.95;1.15;;;10.10;99.90;;;;;;5037735;28;20028;-75
2023/05/15 01:49:38;;;;;;;1.50;0.90;;;10.10;99.90;;;;;;5037143;28;20535;-75
2023/05/15 01:52:34;;;;;;;0.77;0.75;;;10.20;99.90;;;;;;5039911;28;20060;-75
2023/05/15 01:55:01;;;;;;;3.95;1.65;;;10.20;99.90;;;;;;5035579;28;20095;-75
2023/05/15 01:57:28;;;;;;;1.30;0.80;;;10.20;99.90;;;;;;5035522;28;20113;-75
2023/05/15 01:59:54;;;;;;;1.98;1.00;;;10.30;99.90;;;;;;5042785;28;20103;-76
2023/05/15 02:02:21;;;;;;;3.85;1.10;;;10.30;99.90;;;;;;5032959;28;20026;-75
2023/05/15 02:04:47;;;;;;;2.17;0.90;;;10.30;99.90;;;;;;5040601;28;20391;-75
2023/05/15 02:07:14;;;;;;;3.92;1.02;;;10.40;99.90;;;;;;5043772;28;20053;-75
2023/05/15 02:09:41;;;;;;;5.07;0.80;;;10.40;99.90;;;;;;5047142;28;20490;-75
2023/05/15 02:12:08;;;;;;;4.03;0.95;;;10.20;99.90;;;;;;5042355;28;20033;-76
2023/05/15 02:14:34;;;;;;;1.92;0.70;;;10.10;99.90;;;;;;5045100;28;20418;-75
2023/05/15 02:17:00;;;;;;;3.80;1.17;;;10.20;99.90;;;;;;5043176;28;20055;-75
2023/05/15 02:19:26;;;;;;;3.03;0.90;;;10.30;99.90;;;;;;5042300;28;20546;-75
2023/05/15 02:21:51;;;;;;;1.98;0.95;;;10.30;99.90;;;;;;5041662;28;20088;-75
2023/05/15 02:24:17;;;;;;;1.40;0.80;;;10.40;99.90;;;;;;5040127;28;20029;-75
2023/05/15 02:27:07;;;;;;;1.38;0.80;;;10.50;99.90;;;;;;5038077;28;20510;-75
2023/05/15 02:30:05;;;;;;;3.80;1.77;;;10.50;99.90;;;;;;5041516;28;20072;-75
2023/05/15 02:32:37;;;;;;;4.80;2.70;;;10.60;99.90;;;;;;5041123;28;20507;-75
2023/05/15 02:35:24;;;;;;;3.75;1.42;;;10.70;99.90;;;;;;5046562;28;20029;-75
2023/05/15 02:37:55;;;;;;;2.67;1.42;;;10.70;99.90;;;;;;5039951;28;20040;-75
2023/05/15 02:40:23;;;;;;;3.70;1.63;;;10.60;99.90;;;;;;5036501;28;20055;-76
2023/05/15 02:42:52;;;;;;;3.75;1.42;;;10.70;99.90;;;;;;5043078;28;20109;-76
2023/05/15 02:45:19;;;;;;;4.82;1.48;;;10.80;99.90;;;;;;5043454;28;20068;-75
2023/05/15 02:47:45;;;;;;;2.33;1.48;;;10.70;99.90;;;;;;5037423;28;20041;-75
2023/05/15 02:50:10;;;;;;;2.25;1.30;;;10.60;99.90;;;;;;5040673;28;20033;-76
2023/05/15 02:52:36;;;;;;;2.03;0.90;;;10.70;99.90;;;;;;5033398;28;20048;-75
2023/05/15 02:55:02;;;;;;;1.70;0.77;;;10.70;99.90;;;;;;5045537;28;20032;-76
2023/05/15 02:57:28;;;;;;;2.88;0.88;;;10.60;99.90;;;;;;5035599;28;20025;-75
2023/05/15 02:59:55;;;;;;;1.67;0.90;;;10.50;99.90;;;;;;5046443;28;20029;-75
2023/05/15 03:02:21;;;;;;;1.45;0.60;;;10.40;99.90;;;;;;5046360;28;20060;-76
2023/05/15 03:04:47;;;;;;;0.95;0.55;;;10.50;99.90;;;;;;5031946;28;20063;-75
2023/05/15 03:07:13;;;;;;;1.25;0.88;;;10.50;99.90;;;;;;5029521;28;20022;-76
2023/05/15 03:09:39;;;;;;;2.50;1.00;;;10.50;99.90;;;;;;5030537;28;20464;-76
2023/05/15 03:12:06;;;;;;;2.50;0.80;;;10.60;99.90;;;;;;5036333;28;20029;-76
2023/05/15 03:14:31;;;;;;;2.97;0.65;;;10.50;99.90;;;;;;5035507;28;20036;-75
2023/05/15 03:16:57;;;;;;;2.20;0.60;;;10.40;99.90;;;;;;5031631;28;20839;-76
2023/05/15 03:19:23;;;;;;;2.15;0.65;;;10.30;99.90;;;;;;5037095;28;20036;-76
2023/05/15 03:21:48;;;;;;;2.42;0.77;;;10.30;99.90;;;;;;5029112;28;20033;-76
2023/05/15 03:24:14;;;;;;;2.10;0.68;;;10.30;99.90;;;;;;5041385;28;20024;-76
2023/05/15 03:26:41;;;;;;;1.98;1.02;;;10.30;99.90;;;;;;5030349;28;20479;-75
2023/05/15 03:29:07;;;;;;;1.10;0.60;;;10.30;99.90;;;;;;5039343;28;20123;-76
2023/05/15 03:31:33;;;;;;;3.95;1.00;;;10.20;99.90;;;;;;5037534;28;20029;-76
2023/05/15 03:33:58;;;;;;;2.33;1.08;;;10.10;99.90;;;;;;5034184;28;20087;-76
2023/05/15 03:36:24;;;;;;;4.82;0.88;;;10.00;99.90;;;;;;5034894;28;20379;-76
2023/05/15 03:38:50;;;;;;;0.63;0.40;;;10.00;99.90;;;;;;5039536;28;20423;-75
2023/05/15 03:41:15;;;;;;;1.58;0.77;;;10.00;99.90;;;;;;5036573;28;20060;-76
2023/05/15 03:43:41;;;;;;;3.17;1.00;;;10.10;99.90;;;;;;5029771;28;20025;-76
2023/05/15 03:46:06;;;;;;;2.58;0.88;;;10.00;99.90;;;;;;5031547;28;20028;-76
2023/05/15 03:48:32;;;;;;;1.75;0.50;;;9.80;99.90;;;;;;5029315;28;20037;-76
2023/05/15 03:50:58;;;;;;;1.55;0.90;;;9.80;99.90;;;;;;5033870;28;20624;-76
2023/05/15 03:53:24;;;;;;;1.60;0.80;;;9.90;99.90;;;;;;5033947;28;20068;-76
2023/05/15 03:55:49;;;;;;;1.40;0.80;;;10.00;99.90;;;;;;5033610;28;20032;-76
2023/05/15 03:58:15;;;;;;;1.70;0.80;;;10.10;99.90;;;;;;5035774;28;20482;-76
2023/05/15 04:00:40;;;;;;;1.65;0.73;;;10.10;99.90;;;;;;5029132;28;20139;-76
2023/05/15 04:03:06;;;;;;;1.23;0.70;;;10.10;99.90;;;;;;5031190;28;20029;-76
2023/05/15 04:05:32;;;;;;;1.48;0.55;;;9.90;99.90;;;;;;5034036;28;20110;-76
2023/05/15 04:07:57;;;;;;;1.13;0.70;;;9.80;99.90;;;;;;5026497;28;20022;-76
2023/05/15 04:10:23;;;;;;;1.27;0.70;;;9.90;99.90;;;;;;5027512;28;20400;-76
2023/05/15 04:12:50;;;;;;;1.88;0.90;;;9.80;99.90;;;;;;5024396;28;20033;-76
2023/05/15 04:15:18;;;;;;;1.75;0.90;;;9.80;99.90;;;;;;5032060;28;20155;-76
2023/05/15 04:17:45;;;;;;;1.70;0.88;;;10.00;99.90;;;;;;5024796;28;20156;-76
2023/05/15 04:20:15;;;;;;;4.85;0.95;;;10.20;99.90;;;;;;5029668;28;20037;-76
2023/05/15 04:22:42;;;;;;;2.25;1.27;;;10.40;99.90;;;;;;5035273;28;20025;-76
2023/05/15 04:25:08;;;;;;;5.88;3.55;;;10.50;99.90;;;;;;5028277;28;20029;-76
2023/05/15 04:27:35;;;;;;;5.53;3.47;;;10.70;99.90;;;;;;5024503;28;20035;-76
2023/05/15 04:30:01;;;;;;;7.28;3.70;;;10.60;99.90;;;;;;5040007;28;20037;-76
2023/05/15 04:32:27;;;;;;;4.20;2.05;;;10.70;99.90;;;;;;5034179;28;20035;-76
2023/05/15 04:34:53;;;;;;;2.65;1.25;;;10.50;99.90;;;;;;5031513;28;20136;-75
2023/05/15 04:37:19;;;;;;;1.65;1.00;;;10.50;99.90;;;;;;5024919;28;20048;-76
2023/05/15 04:39:44;;;;;;;1.63;0.80;;;10.60;99.90;;;;;;5034374;28;20412;-76
2023/05/15 04:42:10;;;;;;;2.35;1.10;;;10.60;99.90;;;;;;5039570;28;20059;-76
2023/05/15 04:44:36;;;;;;;2.05;1.10;;;10.50;99.90;;;;;;5029660;28;20025;-76
2023/05/15 04:47:01;;;;;;;2.30;1.10;;;10.40;99.90;;;;;;5033609;28;20138;-76
2023/05/15 04:49:27;;;;;;;2.10;0.73;;;10.40;99.90;;;;;;5032091;28;21013;-76
2023/05/15 04:51:53;;;;;;;3.42;1.00;;;10.40;99.90;;;;;;5033431;28;20082;-76
2023/05/15 04:54:19;;;;;;;2.05;1.00;;;10.40;99.90;;;;;;5030813;28;20085;-77
2023/05/15 04:56:45;;;;;;;4.47;1.00;;;10.40;99.90;;;;;;5028437;28;20029;-76
2023/05/15 04:59:12;;;;;;;2.42;1.05;;;10.30;99.90;;;;;;5035061;28;20391;-75
2023/05/15 05:01:37;;;;;;;3.40;1.08;;;10.40;99.90;;;;;;5023864;28;20598;-76
2023/05/15 05:04:03;;;;;;;2.47;1.30;;;10.40;99.90;;;;;;5035463;28;20037;-76
2023/05/15 05:06:29;;;;;;;3.45;1.30;;;10.50;99.90;;;;;;5024791;28;20155;-76
2023/05/15 05:08:55;;;;;;;2.55;1.27;;;10.50;99.90;;;;;;5033194;28;20094;-76
2023/05/15 05:11:20;;;;;;;3.22;1.48;;;10.40;99.90;;;;;;5026268;28;20045;-76
2023/05/15 05:13:46;;;;;;;2.88;0.98;;;10.50;99.90;;;;;;5034309;28;20040;-76
2023/05/15 05:16:12;;;;;;;2.65;1.38;;;10.50;99.90;;;;;;5029946;28;20025;-76
2023/05/15 05:18:37;;;;;;;3.10;1.40;;;10.50;99.90;;;;;;5029916;28;20388;-76
2023/05/15 05:21:03;;;;;;;3.85;1.42;;;10.40;99.90;;;;;;5025714;28;20035;-76
2023/05/15 05:23:29;;;;;;;6.32;1.92;;;10.40;99.90;;;;;;5028727;28;20025;-77
2023/05/15 05:25:55;;;;;;;3.80;1.65;;;10.40;99.90;;;;;;5027288;28;20159;-75
2023/05/15 05:28:22;;;;;;;3.58;2.00;;;10.50;99.90;;;;;;5033816;28;20461;-79
2023/05/15 05:30:47;;;;;;;4.40;1.60;;;10.50;99.90;;;;;;5031591;28;20080;-76
2023/05/15 05:33:14;;;;;;;3.22;1.98;;;10.60;99.90;;;;;;5029997;28;20053;-76
2023/05/15 05:35:39;;;;;;;2.85;1.58;;;10.60;99.90;;;;;;5036764;28;20029;-76
2023/05/15 05:38:05;;;;;;;6.85;1.67;;;10.60;99.90;;;;;;5037140;28;20040;-76
2023/05/15 05:40:31;;;;;;;3.28;1.75;;;10.80;99.90;;;;;;5033921;28;20113;-75
2023/05/15 05:43:00;;;;;;;2.50;1.42;;;10.80;99.90;;;;;;5036627;28;20643;-75
2023/05/15 05:45:27;;;;;;;4.10;1.40;;;10.80;99.90;;;;;;5037309;28;20024;-76
2023/05/15 05:47:54;;;;;;;2.10;1.10;;;10.80;99.90;;;;;;5035714;28;20025;-75
2023/05/15 05:50:20;;;;;;;2.85;1.45;;;10.90;99.90;;;;;;5037427;28;20044;-76
2023/05/15 05:52:46;;;;;;;4.07;1.55;;;11.10;99.90;;;;;;5035964;28;20553;-75
2023/05/15 05:55:11;;;;;;;2.60;1.50;;;11.30;99.90;;;;;;5041528;28;20029;-75
2023/05/15 05:57:37;;;;;;;4.63;1.98;;;11.30;99.90;;;;;;5041170;28;20020;-76
2023/05/15 06:00:07;;;;;;;3.85;2.25;;;11.40;99.90;;;;;;5031124;28;20040;-76
2023/05/15 06:02:33;;;;;;;3.85;1.98;;;11.40;99.90;;;;;;5042454;28;20084;-76
2023/05/15 06:04:58;;;;;;;3.17;1.65;;;11.50;99.90;;;;;;5040136;28;20470;-76
2023/05/15 06:07:24;;;;;;;2.63;1.48;;;11.50;99.90;;;;;;5041979;28;20025;-76
2023/05/15 06:09:50;;;;;;;3.17;1.90;;;11.60;99.90;;;;;;5029315;28;20096;-76
2023/05/15 06:12:16;;;;;;;3.92;1.48;;;11.60;99.90;;;;;;5029361;28;20036;-76
2023/05/15 06:14:41;;;;;;;5.03;1.77;;;11.60;99.90;;;;;;5038139;28;20021;-76
2023/05/15 06:17:07;;;;;;;4.50;1.80;;;11.70;99.90;;;;;;5042549;28;21156;-81
2023/05/15 06:19:32;;;;;;;3.25;1.80;;;11.70;99.90;;;;;;5035197;28;20036;-74
2023/05/15 06:21:58;;;;;;;3.97;1.92;;;11.70;99.90;;;;;;5030872;28;20060;-74
2023/05/15 06:24:24;;;;;;;4.13;2.30;;;11.80;99.90;;;;;;5041825;28;20041;-74
2023/05/15 06:26:49;;;;;;;3.47;1.83;;;11.80;99.90;;;;;;5037743;28;20480;-75
2023/05/15 06:29:15;;;;;;;4.65;2.53;;;11.80;99.90;;;;;;5034969;28;20178;-75
2023/05/15 06:31:41;;;;;;;3.97;2.30;;;11.80;99.90;;;;;;5037206;28;20064;-75
2023/05/15 06:34:06;;;;;;;5.47;3.28;;;12.00;99.90;;;;;;5027239;28;20025;-74
2023/05/15 06:36:32;;;;;;;4.95;3.05;;;12.10;99.90;;;;;;5037421;28;20031;-75
2023/05/15 06:38:58;;;;;;;6.25;3.60;;;12.10;99.90;;;;;;5034135;28;20059;-74
2023/05/15 06:41:24;;;;;;;5.43;2.67;;;12.20;99.90;;;;;;5033723;28;20029;-75
2023/05/15 06:43:49;;;;;;;4.82;3.08;;;12.40;99.90;;;;;;5032554;28;20037;-75
2023/05/15 06:46:17;;;;;;;4.57;2.85;;;12.50;99.90;;;;;;5039849;28;20116;-75
2023/05/15 06:48:43;;;;;;;6.72;3.03;;;12.70;99.90;;;;;;5027835;28;20191;-75
2023/05/15 06:51:09;;;;;;;4.65;3.08;;;12.80;99.90;;;;;;5037904;28;20119;-75
2023/05/15 06:53:35;;;;;;;4.55;2.95;;;13.00;99.90;;;;;;5038776;28;20183;-75
2023/05/15 06:56:01;;;;;;;4.38;2.92;;;13.20;99.90;;;;;;5034869;28;20501;-75
2023/05/15 06:58:26;;;;;;;3.90;2.58;;;13.40;99.90;;;;;;5032295;28;20071;-75
2023/05/15 07:00:52;;;;;;;4.60;3.10;;;13.70;99.90;;;;;;5039858;28;20029;-75
2023/05/15 07:03:17;;;;;;;4.90;2.70;;;13.90;99.90;;;;;;5035124;28;20033;-75
2023/05/15 07:05:44;;;;;;;3.03;1.70;;;14.10;99.90;;;;;;5032490;28;20455;-74
2023/05/15 07:08:10;;;;;;;2.72;1.70;;;14.30;99.90;;;;;;5036886;28;20092;-74
2023/05/15 07:10:35;;;;;;;4.22;2.05;;;14.50;99.90;;;;;;5032492;28;20128;-75
2023/05/15 07:13:01;;;;;;;2.78;1.60;;;14.90;99.90;;;;;;5034019;28;20028;-74
2023/05/15 07:15:26;;;;;;;3.00;1.30;;;15.20;99.90;;;;;;5034476;28;20029;-74
2023/05/15 07:17:52;;;;;;;2.60;1.30;;;16.20;99.90;;;;;;5031869;28;20033;-74
2023/05/15 07:20:18;;;;;;;2.42;1.33;;;17.60;99.90;;;;;;5029589;28;20029;-75
2023/05/15 07:22:43;;;;;;;4.15;1.52;;;18.20;99.90;;;;;;5037536;28;20037;-75
2023/05/15 07:25:09;;;;;;;3.58;1.55;;;19.70;99.90;;;;;;5032292;28;20495;-76
2023/05/15 07:27:35;;;;;;;2.25;1.20;;;20.90;98.20;;;;;;5032081;28;20029;-75
2023/05/15 07:30:03;;;;;;;2.13;1.10;;;21.80;96.40;;;;;;5033705;28;20028;-74
2023/05/15 07:32:29;;;;;;;2.00;1.02;;;22.00;96.00;;;;;;5029168;28;20044;-76
2023/05/15 07:34:55;;;;;;;3.97;1.20;;;22.20;95.30;;;;;;5032840;28;20061;-76
2023/05/15 07:37:22;;;;;;;2.00;0.93;;;22.30;95.00;;;;;;5026866;28;20053;-76
2023/05/15 07:39:48;;;;;;;1.75;0.77;;;22.40;94.60;;;;;;5033806;28;20796;-76
2023/05/15 07:42:14;;;;;;;5.25;1.17;;;23.20;93.80;;;;;;5037566;28;20033;-76
2023/05/15 07:44:39;;;;;;;3.38;1.00;;;22.50;93.70;;;;;;5027774;28;20029;-76
2023/05/15 07:47:05;;;;;;;3.08;1.30;;;22.30;93.90;;;;;;5033666;28;20031;-76
2023/05/15 07:49:31;;;;;;;1.20;0.85;;;22.30;94.10;;;;;;5030120;28;20378;-76
2023/05/15 07:51:56;;;;;;;6.25;0.98;;;21.70;93.80;;;;;;5034859;28;20051;-76
2023/05/15 07:54:22;;;;;;;1.30;0.73;;;20.90;94.40;;;;;;5039157;28;20072;-76
2023/05/15 07:56:48;;;;;;;2.30;0.80;;;18.90;97.30;;;;;;5040507;28;20033;-76
2023/05/15 07:59:14;;;;;;;2.53;1.00;;;17.50;99.90;;;;;;5032487;28;20456;-76
2023/05/15 08:01:39;;;;;;;3.30;1.13;;;16.60;99.90;;;;;;5026323;28;20044;-76
2023/05/15 08:04:07;;;;;;;1.98;0.93;;;17.10;99.90;;;;;;5034861;28;20029;-76
2023/05/15 08:06:35;;;;;;;2.80;1.08;;;18.90;99.40;;;;;;5031726;28;20033;-76
2023/05/15 08:09:01;;;;;;;10.27;1.10;;;19.40;97.30;;;;;;5032482;28;20617;-76
2023/05/15 08:11:27;;;;;;;2.10;1.08;;;19.70;96.80;;;;;;5033684;28;20032;-76
2023/05/15 08:13:53;;;;;;;2.05;0.90;;;19.30;97.10;;;;;;5034927;28;20030;-76
2023/05/15 08:16:18;;;;;;;3.22;1.13;;;19.20;98.00;;;;;;5036465;28;20072;-76
2023/05/15 08:18:44;;;;;;;3.28;1.50;;;19.10;97.90;;;;;;5032172;28;20033;-76
2023/05/15 08:21:10;;;;;;;2.40;1.20;;;18.60;98.80;;;;;;5034552;28;20107;-76
2023/05/15 08:23:35;;;;;;;1.83;1.20;;;17.80;99.70;;;;;;5035204;28;20648;-76
2023/05/15 08:26:01;;;;;;;3.70;2.10;;;17.80;99.90;;;;;;5030175;28;20387;-76
2023/05/15 08:28:27;;;;;;;3.95;1.40;;;17.90;99.90;;;;;;5026701;28;20033;-76
2023/05/15 08:30:53;;;;;;;1.95;1.20;;;17.70;99.90;;;;;;5027003;28;20087;-76
2023/05/15 08:33:18;;;;;;;1.92;1.10;;;17.50;99.90;;;;;;5035018;28;20502;-76
2023/05/15 08:35:44;;;;;;;2.83;1.25;;;17.20;99.90;;;;;;5028036;28;20043;-75
2023/05/15 08:38:10;;;;;;;1.45;0.90;;;16.90;99.90;;;;;;5025244;28;20018;-76
2023/05/15 08:40:36;;;;;;;2.22;1.20;;;16.60;99.90;;;;;;5028537;28;20667;-76
2023/05/15 08:43:13;;;;;;;3.67;1.38;;;16.70;99.90;;;;;;5032946;28;20037;-76
2023/05/15 08:45:39;;;;;;;4.40;1.42;;;17.20;99.90;;;;;;5029149;28;20025;-76
2023/05/15 08:48:10;;;;;;;2.67;0.95;;;17.50;99.90;;;;;;5037775;28;20028;-76
2023/05/15 08:50:38;;;;;;;2.45;1.38;;;17.50;99.90;;;;;;5035604;28;20394;-76
2023/05/15 08:53:04;;;;;;;2.03;1.25;;;17.30;99.90;;;;;;5032154;28;20025;-76
2023/05/15 08:55:31;;;;;;;4.85;1.33;;;17.70;99.90;;;;;;5037351;28;20107;-76
2023/05/15 08:57:58;;;;;;;2.67;1.27;;;17.60;99.90;;;;;;5030731;28;20077;-76
2023/05/15 09:00:25;;;;;;;3.92;1.23;;;17.40;99.90;;;;;;5025375;28;20092;-76
2023/05/15 09:02:53;;;;;;;5.95;1.25;;;17.60;99.90;;;;;;5025147;28;20663;-76
2023/05/15 09:05:19;;;;;;;3.53;1.77;;;17.70;99.90;;;;;;5035063;28;20033;-76
2023/05/15 09:07:46;;;;;;;4.97;1.60;;;17.70;99.90;;;;;;5045427;28;20093;-76
2023/05/15 09:10:13;;;;;;;2.03;1.02;;;17.90;99.90;;;;;;5045191;28;20041;-76
2023/05/15 09:12:42;;;;;;;3.35;1.05;;;17.80;99.90;;;;;;5047259;28;20419;-76
2023/05/15 09:15:16;;;;;;;2.50;1.40;;;17.80;99.90;;;;;;5044538;28;20025;-76
2023/05/15 09:17:43;;;;;;;2.22;1.20;;;18.10;99.90;;;;;;5048422;28;20025;-77
2023/05/15 09:20:23;;;;;;;14.75;1.83;;;18.50;99.90;;;;;;5047431;28;20029;-77
2023/05/15 09:22:49;;;;;;;3.08;0.80;;;18.40;99.90;;;;;;5042235;28;20471;-76
2023/05/15 09:25:32;;;;;;;2.85;1.05;;;18.50;99.90;;;;;;5046173;28;20025;-76
2023/05/15 09:27:58;;;;;;;3.05;1.90;;;18.50;99.30;;;;;;5048747;28;20112;-76
2023/05/15 09:30:26;;;;;;;2.47;0.85;;;18.30;99.30;;;;;;5048796;28;20166;-76
2023/05/15 09:32:53;;;;;;;3.78;0.80;;;18.80;99.90;;;;;;5047053;28;20197;-76
2023/05/15 09:35:34;;;;;;;1.73;0.90;;;18.50;99.00;;;;;;5047779;28;20029;-77
2023/05/15 09:38:02;;;;;;;2.97;0.70;;;18.70;98.40;;;;;;5047785;28;20037;-76
2023/05/15 09:40:29;;;;;;;1.73;0.75;;;18.70;98.10;;;;;;5047374;28;20045;-77
2023/05/15 09:42:55;;;;;;;1.00;0.52;;;18.90;99.20;;;;;;5045120;28;20025;-77
2023/05/15 09:45:24;;;;;;;1.52;0.73;;;19.00;97.50;;;;;;5044954;28;20051;-77
2023/05/15 09:47:50;;;;;;;0.98;0.50;;;19.40;96.50;;;;;;5044585;28;20021;-76
2023/05/15 09:50:21;;;;;;;2.05;0.70;;;19.60;97.00;;;;;;5043424;28;20033;-77
2023/05/15 09:52:47;;;;;;;1.55;0.55;;;19.40;97.20;;;;;;5045117;28;20100;-77
2023/05/15 09:55:18;;;;;;;2.38;0.70;;;19.30;97.00;;;;;;5045515;28;20123;-77
2023/05/15 09:58:03;;;;;;;3.30;0.63;;;19.30;95.70;;;;;;5039527;28;20663;-77
2023/05/15 10:00:29;;;;;;;1.58;0.50;;;19.90;96.10;;;;;;5030432;28;20037;-77
2023/05/15 10:02:57;;;;;;;1.83;0.70;;;20.60;96.00;;;;;;5036571;28;20037;-76
2023/05/15 10:05:26;;;;;;;1.40;0.73;;;20.90;95.50;;;;;;5028780;28;20135;-76
2023/05/15 10:07:57;;;;;;;1.55;0.95;;;20.30;95.30;;;;;;5028761;28;20039;-77
2023/05/15 10:10:23;;;;;;;1.08;0.70;;;20.30;96.20;;;;;;5027490;28;20037;-76
2023/05/15 10:12:54;;;;;;;1.05;0.60;;;20.90;95.90;;;;;;5023111;28;20029;-77
2023/05/15 10:15:21;;;;;;;1.42;0.73;;;20.80;94.30;;;;;;5027620;28;20416;-76
2023/05/15 10:17:49;;;;;;;2.35;0.60;;;20.70;95.60;;;;;;5027246;28;20044;-77
2023/05/15 10:20:19;;;;;;;2.17;0.80;;;21.10;94.90;;;;;;5027413;28;20025;-76
2023/05/15 10:22:51;;;;;;;3.20;1.10;;;21.20;94.20;;;;;;5030031;28;20112;-76
2023/05/15 10:25:31;;;;;;;1.70;0.70;;;20.90;94.70;;;;;;5032460;28;20552;-76
2023/05/15 10:27:58;;;;;;;1.23;0.70;;;20.60;95.10;;;;;;5031948;28;20538;-77
2023/05/15 10:30:25;;;;;;;1.63;0.90;;;20.50;95.10;;;;;;5036412;28;20042;-76
2023/05/15 10:32:51;;;;;;;3.15;1.38;;;20.60;93.70;;;;;;5039976;28;20033;-77
2023/05/15 10:35:17;;;;;;;2.50;0.80;;;20.70;94.00;;;;;;5035431;28;20041;-76
2023/05/15 10:37:46;;;;;;;2.65;1.08;;;20.90;93.20;;;;;;5032609;28;20665;-77
2023/05/15 10:40:13;;;;;;;1.67;0.82;;;21.10;93.00;;;;;;5039438;28;20052;-76
2023/05/15 10:42:41;;;;;;;1.88;0.77;;;21.00;93.80;;;;;;5031640;28;20033;-76
2023/05/15 10:45:08;;;;;;;2.92;0.63;;;21.00;93.60;;;;;;5031367;28;20037;-77
2023/05/15 10:47:35;;;;;;;4.43;0.60;;;21.10;94.00;;;;;;5032483;28;20120;-76
2023/05/15 10:50:01;;;;;;;2.80;0.55;;;20.90;94.10;;;;;;5028297;28;20091;-76
2023/05/15 10:52:26;;;;;;;3.22;0.90;;;21.20;95.40;;;;;;5037242;28;20032;-76
2023/05/15 10:54:53;;;;;;;1.77;0.68;;;21.50;95.00;;;;;;5029643;28;20499;-77
2023/05/15 10:57:22;;;;;;;1.33;0.65;;;21.40;94.00;;;;;;5035286;28;20597;-76
2023/05/15 10:59:48;;;;;;;2.80;0.70;;;21.40;92.40;;;;;;5036927;28;20391;-77
2023/05/15 11:02:26;;;;;;;1.70;0.80;;;21.30;93.10;;;;;;5042420;28;20104;-76
2023/05/15 11:05:04;;;;;;;2.50;0.73;;;21.80;94.20;;;;;;5033704;28;20663;-76
2023/05/15 11:07:30;;;;;;;1.83;0.68;;;21.50;92.00;;;;;;5036910;28;20043;-76
2023/05/15 11:09:56;;;;;;;1.33;0.85;;;21.50;92.40;;;;;;5038019;28;20037;-77
2023/05/15 11:12:23;;;;;;;0.55;0.47;;;21.50;91.30;;;;;;5036745;28;20037;-77
2023/05/15 11:14:55;;;;;;;2.78;0.65;;;21.80;92.20;;;;;;5031174;28;20025;-77
2023/05/15 11:17:23;;;;;;;2.75;0.77;;;22.30;93.20;;;;;;5030875;28;20029;-77
2023/05/15 11:19:48;;;;;;;2.28;0.80;;;22.40;92.30;;;;;;5034836;28;20515;-77
2023/05/15 11:22:14;;;;;;;1.15;0.52;;;21.40;91.70;;;;;;5035717;28;20029;-77
2023/05/15 11:24:53;;;;;;;2.50;0.90;;;21.70;93.00;;;;;;5041671;28;20361;-77
2023/05/15 11:27:23;;;;;;;1.17;0.60;;;21.90;92.40;;;;;;5038829;28;20061;-79
2023/05/15 11:30:06;;;;;;;1.27;0.70;;;22.20;92.00;;;;;;5035072;28;20103;-76
2023/05/15 11:32:47;;;;;;;4.47;1.60;;;22.40;92.40;;;;;;5036390;28;20099;-76
2023/05/15 11:35:33;;;;;;;3.40;0.80;;;22.80;93.20;;;;;;5033727;28;20021;-77
2023/05/15 11:38:03;;;;;;;3.60;0.90;;;22.70;91.20;;;;;;5034541;28;20051;-78
2023/05/15 11:40:30;;;;;;;1.35;0.70;;;22.60;92.50;;;;;;5038448;28;20045;-77
2023/05/15 11:43:00;;;;;;;4.53;0.98;;;22.40;92.30;;;;;;5039514;28;20047;-77
2023/05/15 11:45:35;;;;;;;1.40;0.65;;;22.60;93.00;;;;;;5040795;28;20025;-77
2023/05/15 11:48:02;;;;;;;2.58;0.90;;;22.70;91.50;;;;;;5038920;28;20383;-78
2023/05/15 11:50:30;;;;;;;2.70;0.60;;;22.80;91.20;;;;;;5039206;28;20033;-77
2023/05/15 11:52:56;;;;;;;3.05;0.70;;;22.70;90.70;;;;;;5036446;28;20064;-77
2023/05/15 11:55:22;;;;;;;1.95;0.82;;;22.90;91.90;;;;;;5035771;28;20061;-77
2023/05/15 11:57:48;;;;;;;1.65;0.55;;;22.60;90.40;;;;;;5034972;28;20170;-77
2023/05/15 12:00:14;;;;;;;1.52;0.75;;;22.70;92.00;;;;;;5034971;28;20032;-78
2023/05/15 12:02:41;;;;;;;4.90;0.77;;;23.20;92.40;;;;;;5027388;28;20026;-77
2023/05/15 12:05:08;;;;;;;1.67;0.70;;;23.40;91.90;;;;;;5037195;28;20146;-76
2023/05/15 12:07:38;;;;;;;1.05;0.57;;;23.60;91.40;;;;;;5031277;28;20438;-77
2023/05/15 12:10:05;;;;;;;1.80;0.63;;;23.60;90.60;;;;;;5038940;28;20045;-76
2023/05/15 12:12:31;;;;;;;2.17;0.45;;;23.20;89.30;;;;;;5037768;28;20029;-76
2023/05/15 12:14:58;;;;;;;2.63;0.90;;;23.20;90.30;;;;;;5034223;28;20039;-77
2023/05/15 12:17:24;;;;;;;1.23;0.55;;;22.90;91.10;;;;;;5033907;28;20452;-78
2023/05/15 12:19:51;;;;;;;2.60;0.73;;;23.20;90.10;;;;;;5038652;28;20037;-77
2023/05/15 12:22:17;;;;;;;1.35;0.60;;;23.60;91.00;;;;;;5038861;28;20954;-77
2023/05/15 12:24:44;;;;;;;3.05;0.73;;;23.70;92.00;;;;;;5029610;28;20116;-78
2023/05/15 12:27:11;;;;;;;0.95;0.55;;;23.40;90.70;;;;;;5030255;28;20065;-77
2023/05/15 12:29:39;;;;;;;2.85;0.70;;;23.40;91.00;;;;;;5035663;28;20033;-77
2023/05/15 12:32:05;;;;;;;1.85;0.57;;;23.40;91.40;;;;;;5036448;28;20082;-77
2023/05/15 12:34:31;;;;;;;3.67;0.77;;;22.90;92.00;;;;;;5036420;28;20519;-77
2023/05/15 12:37:00;;;;;;;3.72;0.73;;;22.90;91.90;;;;;;5039685;28;20427;-77
2023/05/15 12:39:26;;;;;;;1.58;0.70;;;23.30;92.60;;;;;;5036127;28;20048;-77
2023/05/15 12:41:54;;;;;;;2.92;0.85;;;23.00;91.80;;;;;;5031631;28;20037;-79
2023/05/15 12:44:20;;;;;;;1.95;0.57;;;22.90;90.60;;;;;;5031797;28;20025;-78
2023/05/15 12:46:46;;;;;;;2.00;0.70;;;23.10;92.70;;;;;;5031155;28;20044;-78
2023/05/15 12:49:12;;;;;;;0.57;0.35;;;23.60;91.60;;;;;;5031715;28;20033;-78
2023/05/15 12:51:44;;;;;;;3.20;0.68;;;23.60;90.60;;;;;;5033901;28;20521;-77